sensor_id;sensor_type;location;lat;lon;timestamp;pressure;altitude;pressure_sealevel;temperature;humidity
31717;BME280;18301;51.076;17.046;2023-03-31T00:03:56;99325.19;;;10.93;79.82
31717;BME280;18301;51.076;17.046;2023-03-31T00:09:08;99312.97;;;10.89;79.58
31717;BME280;18301;51.076;17.046;2023-03-31T00:14:12;99316.69;;;10.88;79.37
31717;BME280;18301;51.076;17.046;2023-03-31T00:19:13;99327.75;;;10.85;79.36
31717;BME280;18301;51.076;17.046;2023-03-31T00:24:18;99313.13;;;10.87;79.05
31717;BME280;18301;51.076;17.046;2023-03-31T00:29:20;99314.81;;;10.78;79.05
31717;BME280;18301;51.076;17.046;2023-03-31T00:34:21;99314.09;;;10.76;79.34
31717;BME280;18301;51.076;17.046;2023-03-31T00:39:23;99316.66;;;10.68;79.52
31717;BME280;18301;51.076;17.046;2023-03-31T00:44:28;99306.00;;;10.57;79.64
31717;BME280;18301;51.076;17.046;2023-03-31T00:49:45;99300.72;;;10.46;79.92
31717;BME280;18301;51.076;17.046;2023-03-31T00:54:50;99300.31;;;10.50;79.66
31717;BME280;18301;51.076;17.046;2023-03-31T00:59:58;99283.97;;;10.42;80.45
31717;BME280;18301;51.076;17.046;2023-03-31T01:05:02;99288.81;;;10.48;80.22
31717;BME280;18301;51.076;17.046;2023-03-31T01:10:03;99277.44;;;10.45;79.95
31717;BME280;18301;51.076;17.046;2023-03-31T01:15:06;99268.34;;;10.36;80.28
31717;BME280;18301;51.076;17.046;2023-03-31T01:20:31;99272.75;;;10.37;80.41
31717;BME280;18301;51.076;17.046;2023-03-31T01:31:40;99264.75;;;10.26;80.18
31717;BME280;18301;51.076;17.046;2023-03-31T01:37:36;99260.50;;;10.23;80.14
31717;BME280;18301;51.076;17.046;2023-03-31T01:42:36;99254.69;;;10.28;79.90
31717;BME280;18301;51.076;17.046;2023-03-31T01:47:45;99256.22;;;10.21;80.39
31717;BME280;18301;51.076;17.046;2023-03-31T01:53:01;99260.09;;;10.28;79.56
31717;BME280;18301;51.076;17.046;2023-03-31T01:58:12;99238.63;;;10.07;80.21
31717;BME280;18301;51.076;17.046;2023-03-31T02:03:19;99250.09;;;10.09;80.12
31717;BME280;18301;51.076;17.046;2023-03-31T02:08:27;99246.34;;;9.90;80.75
31717;BME280;18301;51.076;17.046;2023-03-31T02:13:31;99248.34;;;9.88;80.93
31717;BME280;18301;51.076;17.046;2023-03-31T02:18:35;99240.81;;;9.82;80.99
31717;BME280;18301;51.076;17.046;2023-03-31T02:23:38;99237.16;;;9.93;80.50
31717;BME280;18301;51.076;17.046;2023-03-31T02:28:40;99232.38;;;9.66;81.65
31717;BME280;18301;51.076;17.046;2023-03-31T02:33:41;99233.78;;;9.60;81.16
31717;BME280;18301;51.076;17.046;2023-03-31T02:38:56;99228.25;;;9.62;81.12
31717;BME280;18301;51.076;17.046;2023-03-31T02:44:00;99217.66;;;9.70;80.89
31717;BME280;18301;51.076;17.046;2023-03-31T02:49:04;99213.97;;;9.71;80.62
31717;BME280;18301;51.076;17.046;2023-03-31T03:04:58;99192.69;;;9.68;80.42
31717;BME280;18301;51.076;17.046;2023-03-31T03:15:18;99191.81;;;9.58;80.87
31717;BME280;18301;51.076;17.046;2023-03-31T03:20:23;99200.00;;;9.47;80.76
31717;BME280;18301;51.076;17.046;2023-03-31T03:25:24;99196.00;;;9.41;81.27
31717;BME280;18301;51.076;17.046;2023-03-31T03:30:26;99188.91;;;9.40;81.09
31717;BME280;18301;51.076;17.046;2023-03-31T03:35:27;99187.69;;;9.23;81.16
31717;BME280;18301;51.076;17.046;2023-03-31T03:40:29;99184.53;;;9.08;81.30
31717;BME280;18301;51.076;17.046;2023-03-31T03:45:30;99180.25;;;9.06;81.42
31717;BME280;18301;51.076;17.046;2023-03-31T03:50:47;99178.50;;;8.95;81.68
31717;BME280;18301;51.076;17.046;2023-03-31T03:55:50;99172.06;;;8.86;82.12
31717;BME280;18301;51.076;17.046;2023-03-31T04:00:52;99177.22;;;8.68;81.88
31717;BME280;18301;51.076;17.046;2023-03-31T04:05:53;99176.59;;;8.65;82.27
31717;BME280;18301;51.076;17.046;2023-03-31T04:10:54;99171.03;;;8.78;82.48
31717;BME280;18301;51.076;17.046;2023-03-31T04:15:56;99159.13;;;8.80;81.71
31717;BME280;18301;51.076;17.046;2023-03-31T04:20:58;99164.13;;;8.64;81.62
31717;BME280;18301;51.076;17.046;2023-03-31T04:26:05;99155.69;;;8.47;82.10
31717;BME280;18301;51.076;17.046;2023-03-31T04:31:09;99150.31;;;8.36;82.33
31717;BME280;18301;51.076;17.046;2023-03-31T04:36:15;99150.84;;;8.30;82.66
31717;BME280;18301;51.076;17.046;2023-03-31T04:41:21;99147.69;;;8.25;82.86
31717;BME280;18301;51.076;17.046;2023-03-31T04:46:22;99130.13;;;8.21;83.14
31717;BME280;18301;51.076;17.046;2023-03-31T04:51:24;99117.16;;;8.26;83.08
31717;BME280;18301;51.076;17.046;2023-03-31T04:56:25;99113.72;;;8.24;83.30
31717;BME280;18301;51.076;17.046;2023-03-31T05:01:27;99113.22;;;8.30;83.41
31717;BME280;18301;51.076;17.046;2023-03-31T05:06:33;99111.22;;;8.43;83.42
31717;BME280;18301;51.076;17.046;2023-03-31T05:11:34;99115.16;;;8.60;83.72
31717;BME280;18301;51.076;17.046;2023-03-31T05:16:36;99120.84;;;8.67;83.43
31717;BME280;18301;51.076;17.046;2023-03-31T05:21:38;99122.28;;;8.71;84.66
31717;BME280;18301;51.076;17.046;2023-03-31T05:26:39;99124.00;;;8.72;84.16
31717;BME280;18301;51.076;17.046;2023-03-31T05:31:42;99114.16;;;8.82;83.99
31717;BME280;18301;51.076;17.046;2023-03-31T05:36:43;99107.38;;;8.88;83.77
31717;BME280;18301;51.076;17.046;2023-03-31T05:41:45;99112.25;;;9.04;83.45
31717;BME280;18301;51.076;17.046;2023-03-31T05:46:46;99104.78;;;9.17;83.46
31717;BME280;18301;51.076;17.046;2023-03-31T05:51:48;99108.16;;;9.50;82.21
31717;BME280;18301;51.076;17.046;2023-03-31T05:56:49;99111.13;;;9.47;82.77
31717;BME280;18301;51.076;17.046;2023-03-31T06:01:51;99089.22;;;9.71;82.73
31717;BME280;18301;51.076;17.046;2023-03-31T06:06:52;99094.34;;;9.93;82.17
31717;BME280;18301;51.076;17.046;2023-03-31T06:11:54;99087.25;;;10.02;81.91
31717;BME280;18301;51.076;17.046;2023-03-31T06:16:56;99083.03;;;10.28;81.67
31717;BME280;18301;51.076;17.046;2023-03-31T06:21:58;99077.00;;;10.54;81.22
31717;BME280;18301;51.076;17.046;2023-03-31T06:27:00;99066.63;;;10.59;81.33
31717;BME280;18301;51.076;17.046;2023-03-31T06:32:01;99074.25;;;10.73;81.25
31717;BME280;18301;51.076;17.046;2023-03-31T06:37:05;99066.72;;;10.77;80.53
31717;BME280;18301;51.076;17.046;2023-03-31T06:42:07;99071.56;;;10.73;81.43
31717;BME280;18301;51.076;17.046;2023-03-31T06:47:08;99055.81;;;11.06;80.79
31717;BME280;18301;51.076;17.046;2023-03-31T06:52:10;99065.00;;;11.41;80.08
31717;BME280;18301;51.076;17.046;2023-03-31T06:57:11;99059.56;;;11.68;79.16
31717;BME280;18301;51.076;17.046;2023-03-31T07:02:13;99065.69;;;12.06;77.94
31717;BME280;18301;51.076;17.046;2023-03-31T07:07:14;99053.50;;;12.20;77.39
31717;BME280;18301;51.076;17.046;2023-03-31T07:12:16;99049.31;;;12.26;77.52
31717;BME280;18301;51.076;17.046;2023-03-31T07:17:18;99047.59;;;12.25;77.66
31717;BME280;18301;51.076;17.046;2023-03-31T07:22:19;99037.56;;;12.35;78.72
31717;BME280;18301;51.076;17.046;2023-03-31T07:27:21;99030.56;;;12.50;77.67
31717;BME280;18301;51.076;17.046;2023-03-31T07:32:26;99020.94;;;12.56;77.82
31717;BME280;18301;51.076;17.046;2023-03-31T07:37:36;99018.78;;;12.59;78.38
31717;BME280;18301;51.076;17.046;2023-03-31T07:42:38;99007.63;;;12.62;76.96
31717;BME280;18301;51.076;17.046;2023-03-31T07:47:39;99011.22;;;12.71;77.42
31717;BME280;18301;51.076;17.046;2023-03-31T07:52:41;98987.94;;;12.86;78.17
31717;BME280;18301;51.076;17.046;2023-03-31T07:57:46;98999.41;;;12.80;78.16
31717;BME280;18301;51.076;17.046;2023-03-31T08:02:48;98996.94;;;12.95;77.95
31717;BME280;18301;51.076;17.046;2023-03-31T08:07:49;98974.00;;;13.24;75.79
31717;BME280;18301;51.076;17.046;2023-03-31T08:12:52;98985.94;;;13.31;73.41
31717;BME280;18301;51.076;17.046;2023-03-31T08:17:53;98992.78;;;13.17;74.24
31717;BME280;18301;51.076;17.046;2023-03-31T08:22:55;98979.44;;;13.24;74.53
31717;BME280;18301;51.076;17.046;2023-03-31T08:27:57;98968.84;;;13.39;74.53
31717;BME280;18301;51.076;17.046;2023-03-31T08:32:58;98953.78;;;13.61;74.97
31717;BME280;18301;51.076;17.046;2023-03-31T08:37:59;98944.00;;;13.68;74.13
31717;BME280;18301;51.076;17.046;2023-03-31T08:43:10;98931.13;;;13.86;74.01
31717;BME280;18301;51.076;17.046;2023-03-31T08:53:24;98932.78;;;13.79;72.29
31717;BME280;18301;51.076;17.046;2023-03-31T08:58:42;98929.22;;;14.03;72.06
31717;BME280;18301;51.076;17.046;2023-03-31T09:09:28;98901.66;;;14.47;69.71
31717;BME280;18301;51.076;17.046;2023-03-31T09:14:43;98904.16;;;14.65;69.58
31717;BME280;18301;51.076;17.046;2023-03-31T09:19:59;98884.75;;;14.84;68.70
31717;BME280;18301;51.076;17.046;2023-03-31T09:25:15;98890.03;;;15.09;68.49
31717;BME280;18301;51.076;17.046;2023-03-31T09:30:24;98895.75;;;15.14;67.28
31717;BME280;18301;51.076;17.046;2023-03-31T09:35:27;98881.97;;;15.47;65.72
31717;BME280;18301;51.076;17.046;2023-03-31T09:40:33;98878.81;;;15.12;67.71
31717;BME280;18301;51.076;17.046;2023-03-31T09:45:35;98866.56;;;15.16;67.46
31717;BME280;18301;51.076;17.046;2023-03-31T09:50:44;98857.63;;;14.76;67.67
31717;BME280;18301;51.076;17.046;2023-03-31T09:55:53;98863.63;;;14.63;67.60
31717;BME280;18301;51.076;17.046;2023-03-31T10:01:03;98853.31;;;14.50;68.87
31717;BME280;18301;51.076;17.046;2023-03-31T10:06:10;98844.84;;;14.54;68.29
31717;BME280;18301;51.076;17.046;2023-03-31T10:11:14;98832.13;;;14.46;68.52
31717;BME280;18301;51.076;17.046;2023-03-31T10:16:28;98836.72;;;14.54;67.98
31717;BME280;18301;51.076;17.046;2023-03-31T10:21:35;98823.06;;;14.62;68.55
31717;BME280;18301;51.076;17.046;2023-03-31T10:26:38;98816.44;;;14.64;68.21
31717;BME280;18301;51.076;17.046;2023-03-31T10:31:40;98807.06;;;14.75;68.04
31717;BME280;18301;51.076;17.046;2023-03-31T10:36:47;98793.84;;;14.72;68.12
31717;BME280;18301;51.076;17.046;2023-03-31T10:41:52;98781.91;;;14.81;68.56
31717;BME280;18301;51.076;17.046;2023-03-31T10:46:54;98782.22;;;15.09;67.53
31717;BME280;18301;51.076;17.046;2023-03-31T10:51:57;98780.13;;;15.11;66.88
31717;BME280;18301;51.076;17.046;2023-03-31T10:57:01;98775.56;;;15.12;66.56
31717;BME280;18301;51.076;17.046;2023-03-31T11:02:29;98759.81;;;15.45;65.55
31717;BME280;18301;51.076;17.046;2023-03-31T11:13:15;98739.97;;;16.19;61.70
31717;BME280;18301;51.076;17.046;2023-03-31T11:18:33;98732.50;;;16.06;61.13
31717;BME280;18301;51.076;17.046;2023-03-31T11:23:43;98724.53;;;15.75;63.06
31717;BME280;18301;51.076;17.046;2023-03-31T11:29:13;98705.03;;;15.71;63.56
31717;BME280;18301;51.076;17.046;2023-03-31T11:40:02;98685.44;;;16.85;61.60
31717;BME280;18301;51.076;17.046;2023-03-31T11:45:15;98680.47;;;16.52;59.31
31717;BME280;18301;51.076;17.046;2023-03-31T11:50:21;98669.63;;;16.01;60.66
31717;BME280;18301;51.076;17.046;2023-03-31T11:55:26;98673.31;;;15.78;61.09
31717;BME280;18301;51.076;17.046;2023-03-31T12:00:42;98649.13;;;15.54;62.70
31717;BME280;18301;51.076;17.046;2023-03-31T12:05:48;98647.25;;;15.69;61.56
31717;BME280;18301;51.076;17.046;2023-03-31T12:10:54;98645.75;;;15.81;61.84
31717;BME280;18301;51.076;17.046;2023-03-31T12:16:10;98645.00;;;15.87;61.86
31717;BME280;18301;51.076;17.046;2023-03-31T12:21:14;98646.78;;;15.80;60.69
31717;BME280;18301;51.076;17.046;2023-03-31T12:31:27;98619.13;;;15.77;61.34
31717;BME280;18301;51.076;17.046;2023-03-31T12:37:02;98613.41;;;15.72;61.80
31717;BME280;18301;51.076;17.046;2023-03-31T13:08:50;98574.88;;;14.79;69.68
31717;BME280;18301;51.076;17.046;2023-03-31T13:14:10;98559.50;;;14.57;71.23
31717;BME280;18301;51.076;17.046;2023-03-31T13:19:26;98569.31;;;14.58;72.34
31717;BME280;18301;51.076;17.046;2023-03-31T13:24:30;98562.00;;;14.12;76.24
31717;BME280;18301;51.076;17.046;2023-03-31T13:29:43;98557.91;;;13.93;77.45
31717;BME280;18301;51.076;17.046;2023-03-31T13:35:00;98536.69;;;13.97;80.97
31717;BME280;18301;51.076;17.046;2023-03-31T13:56:27;98497.53;;;13.99;83.29
31717;BME280;18301;51.076;17.046;2023-03-31T14:01:41;98488.88;;;13.81;85.65
31717;BME280;18301;51.076;17.046;2023-03-31T14:06:52;98475.38;;;13.73;86.52
31717;BME280;18301;51.076;17.046;2023-03-31T14:11:59;98460.50;;;13.69;87.44
31717;BME280;18301;51.076;17.046;2023-03-31T14:17:02;98452.13;;;13.55;86.84
31717;BME280;18301;51.076;17.046;2023-03-31T14:22:32;98442.50;;;13.53;87.61
31717;BME280;18301;51.076;17.046;2023-03-31T14:27:59;98435.97;;;13.39;87.58
31717;BME280;18301;51.076;17.046;2023-03-31T14:33:17;98427.56;;;13.34;87.72
31717;BME280;18301;51.076;17.046;2023-03-31T14:38:26;98428.44;;;13.26;87.38
31717;BME280;18301;51.076;17.046;2023-03-31T14:43:32;98414.72;;;13.20;86.51
31717;BME280;18301;51.076;17.046;2023-03-31T14:48:40;98404.38;;;13.23;85.21
31717;BME280;18301;51.076;17.046;2023-03-31T14:53:45;98390.34;;;13.28;85.31
31717;BME280;18301;51.076;17.046;2023-03-31T14:58:49;98401.16;;;13.51;86.82
31717;BME280;18301;51.076;17.046;2023-03-31T15:03:53;98390.59;;;13.64;87.07
31717;BME280;18301;51.076;17.046;2023-03-31T15:08:56;98384.06;;;13.73;87.09
31717;BME280;18301;51.076;17.046;2023-03-31T15:13:58;98389.88;;;13.70;86.84
31717;BME280;18301;51.076;17.046;2023-03-31T15:19:33;98391.44;;;13.65;86.40
31717;BME280;18301;51.076;17.046;2023-03-31T15:24:35;98390.44;;;13.57;86.21
31717;BME280;18301;51.076;17.046;2023-03-31T15:29:41;98386.56;;;13.37;85.36
31717;BME280;18301;51.076;17.046;2023-03-31T15:34:44;98373.25;;;13.50;84.63
31717;BME280;18301;51.076;17.046;2023-03-31T15:39:47;98376.59;;;13.75;81.37
31717;BME280;18301;51.076;17.046;2023-03-31T15:45:01;98362.16;;;13.60;80.63
31717;BME280;18301;51.076;17.046;2023-03-31T15:50:20;98363.44;;;13.49;78.35
31717;BME280;18301;51.076;17.046;2023-03-31T16:00:43;98365.69;;;13.61;76.41
31717;BME280;18301;51.076;17.046;2023-03-31T16:05:56;98367.09;;;13.56;75.59
31717;BME280;18301;51.076;17.046;2023-03-31T16:11:03;98355.59;;;13.54;75.09
31717;BME280;18301;51.076;17.046;2023-03-31T16:16:09;98365.16;;;13.42;76.36
31717;BME280;18301;51.076;17.046;2023-03-31T16:21:12;98368.78;;;13.34;77.35
31717;BME280;18301;51.076;17.046;2023-03-31T16:26:21;98355.16;;;13.20;78.38
31717;BME280;18301;51.076;17.046;2023-03-31T16:36:37;98340.56;;;13.29;79.47
31717;BME280;18301;51.076;17.046;2023-03-31T16:41:39;98327.25;;;13.42;79.89
31717;BME280;18301;51.076;17.046;2023-03-31T16:46:40;98323.16;;;13.46;80.00
31717;BME280;18301;51.076;17.046;2023-03-31T16:51:42;98303.88;;;13.41;79.81
31717;BME280;18301;51.076;17.046;2023-03-31T16:56:43;98297.06;;;13.45;80.01
31717;BME280;18301;51.076;17.046;2023-03-31T17:01:44;98291.03;;;13.43;79.99
31717;BME280;18301;51.076;17.046;2023-03-31T17:06:46;98299.59;;;13.24;79.84
31717;BME280;18301;51.076;17.046;2023-03-31T17:11:47;98295.25;;;13.14;80.14
31717;BME280;18301;51.076;17.046;2023-03-31T17:16:50;98307.84;;;13.07;79.83
31717;BME280;18301;51.076;17.046;2023-03-31T17:21:51;98311.34;;;12.93;80.02
31717;BME280;18301;51.076;17.046;2023-03-31T17:26:53;98294.13;;;12.86;80.01
31717;BME280;18301;51.076;17.046;2023-03-31T17:31:54;98300.63;;;12.77;80.22
31717;BME280;18301;51.076;17.046;2023-03-31T17:36:55;98297.66;;;12.63;79.95
31717;BME280;18301;51.076;17.046;2023-03-31T17:41:57;98287.16;;;12.69;79.81
31717;BME280;18301;51.076;17.046;2023-03-31T17:46:59;98293.28;;;12.62;79.92
31717;BME280;18301;51.076;17.046;2023-03-31T17:52:01;98287.06;;;12.54;79.66
31717;BME280;18301;51.076;17.046;2023-03-31T17:57:02;98296.38;;;12.51;79.43
31717;BME280;18301;51.076;17.046;2023-03-31T18:02:04;98304.94;;;12.32;80.21
31717;BME280;18301;51.076;17.046;2023-03-31T18:07:06;98315.44;;;12.18;81.14
31717;BME280;18301;51.076;17.046;2023-03-31T18:12:07;98303.44;;;12.13;81.05
31717;BME280;18301;51.076;17.046;2023-03-31T18:17:10;98312.09;;;12.08;81.08
31717;BME280;18301;51.076;17.046;2023-03-31T18:22:15;98312.44;;;12.13;80.68
31717;BME280;18301;51.076;17.046;2023-03-31T18:27:17;98304.94;;;12.32;79.71
31717;BME280;18301;51.076;17.046;2023-03-31T18:32:18;98306.22;;;12.44;79.07
31717;BME280;18301;51.076;17.046;2023-03-31T18:37:20;98314.50;;;12.42;79.31
31717;BME280;18301;51.076;17.046;2023-03-31T18:42:22;98309.97;;;12.35;79.21
31717;BME280;18301;51.076;17.046;2023-03-31T18:47:25;98303.97;;;12.16;79.44
31717;BME280;18301;51.076;17.046;2023-03-31T18:52:27;98307.50;;;12.17;78.72
31717;BME280;18301;51.076;17.046;2023-03-31T18:57:29;98306.97;;;12.21;78.29
31717;BME280;18301;51.076;17.046;2023-03-31T19:02:31;98304.50;;;12.04;78.54
31717;BME280;18301;51.076;17.046;2023-03-31T19:07:32;98301.63;;;12.05;78.54
31717;BME280;18301;51.076;17.046;2023-03-31T19:12:34;98295.06;;;11.91;78.98
31717;BME280;18301;51.076;17.046;2023-03-31T19:17:35;98311.06;;;12.09;78.15
31717;BME280;18301;51.076;17.046;2023-03-31T19:22:37;98313.84;;;11.93;78.58
31717;BME280;18301;51.076;17.046;2023-03-31T19:27:39;98326.34;;;11.78;79.22
31717;BME280;18301;51.076;17.046;2023-03-31T19:32:41;98331.75;;;11.69;79.26
31717;BME280;18301;51.076;17.046;2023-03-31T19:37:43;98325.16;;;11.72;79.12
31717;BME280;18301;51.076;17.046;2023-03-31T19:42:45;98315.88;;;11.74;79.38
31717;BME280;18301;51.076;17.046;2023-03-31T19:47:46;98320.78;;;11.71;79.01
31717;BME280;18301;51.076;17.046;2023-03-31T19:52:48;98320.97;;;11.61;79.36
31717;BME280;18301;51.076;17.046;2023-03-31T19:57:50;98333.09;;;11.65;79.31
31717;BME280;18301;51.076;17.046;2023-03-31T20:02:51;98334.13;;;11.56;79.41
31717;BME280;18301;51.076;17.046;2023-03-31T20:07:53;98340.56;;;11.55;79.61
31717;BME280;18301;51.076;17.046;2023-03-31T20:12:54;98343.22;;;11.63;79.51
31717;BME280;18301;51.076;17.046;2023-03-31T20:17:57;98334.47;;;11.61;79.81
31717;BME280;18301;51.076;17.046;2023-03-31T20:22:58;98332.09;;;11.42;80.15
31717;BME280;18301;51.076;17.046;2023-03-31T20:28:00;98330.41;;;11.57;79.71
31717;BME280;18301;51.076;17.046;2023-03-31T20:33:01;98348.31;;;11.42;79.81
31717;BME280;18301;51.076;17.046;2023-03-31T20:38:03;98355.38;;;11.26;80.61
31717;BME280;18301;51.076;17.046;2023-03-31T20:43:05;98373.63;;;11.24;82.91
31717;BME280;18301;51.076;17.046;2023-03-31T20:48:06;98384.22;;;11.10;84.11
31717;BME280;18301;51.076;17.046;2023-03-31T20:53:08;98392.53;;;11.24;84.04
31717;BME280;18301;51.076;17.046;2023-03-31T20:58:10;98391.47;;;11.09;84.91
31717;BME280;18301;51.076;17.046;2023-03-31T21:03:11;98397.88;;;11.08;85.52
31717;BME280;18301;51.076;17.046;2023-03-31T21:08:12;98393.31;;;11.00;85.22
31717;BME280;18301;51.076;17.046;2023-03-31T21:13:15;98383.50;;;10.91;85.90
31717;BME280;18301;51.076;17.046;2023-03-31T21:18:16;98385.00;;;10.86;86.01
31717;BME280;18301;51.076;17.046;2023-03-31T21:23:18;98382.34;;;10.94;85.34
31717;BME280;18301;51.076;17.046;2023-03-31T21:28:22;98378.25;;;10.81;86.32
31717;BME280;18301;51.076;17.046;2023-03-31T21:33:25;98357.53;;;10.90;85.77
31717;BME280;18301;51.076;17.046;2023-03-31T21:38:27;98370.13;;;10.73;85.58
31717;BME280;18301;51.076;17.046;2023-03-31T21:43:28;98375.50;;;10.65;86.04
31717;BME280;18301;51.076;17.046;2023-03-31T21:48:30;98369.81;;;10.76;85.10
31717;BME280;18301;51.076;17.046;2023-03-31T21:53:32;98372.31;;;10.70;84.85
31717;BME280;18301;51.076;17.046;2023-03-31T21:58:33;98374.19;;;10.69;84.99
31717;BME280;18301;51.076;17.046;2023-03-31T22:03:35;98377.19;;;10.66;84.87
31717;BME280;18301;51.076;17.046;2023-03-31T22:08:38;98372.66;;;10.67;84.49
31717;BME280;18301;51.076;17.046;2023-03-31T22:13:41;98366.44;;;10.82;83.26
31717;BME280;18301;51.076;17.046;2023-03-31T22:18:43;98371.63;;;10.68;84.14
31717;BME280;18301;51.076;17.046;2023-03-31T22:23:44;98375.66;;;10.64;84.47
31717;BME280;18301;51.076;17.046;2023-03-31T22:28:46;98383.25;;;10.60;84.44
31717;BME280;18301;51.076;17.046;2023-03-31T22:33:48;98383.56;;;10.65;83.58
31717;BME280;18301;51.076;17.046;2023-03-31T22:38:50;98385.91;;;10.52;83.98
31717;BME280;18301;51.076;17.046;2023-03-31T22:43:51;98385.97;;;10.34;83.92
31717;BME280;18301;51.076;17.046;2023-03-31T22:48:53;98388.53;;;10.35;83.78
31717;BME280;18301;51.076;17.046;2023-03-31T22:53:54;98390.00;;;10.30;84.49
31717;BME280;18301;51.076;17.046;2023-03-31T22:58:57;98377.69;;;10.27;83.96
31717;BME280;18301;51.076;17.046;2023-03-31T23:03:58;98381.69;;;10.23;84.28
31717;BME280;18301;51.076;17.046;2023-03-31T23:09:01;98372.34;;;10.35;83.18
31717;BME280;18301;51.076;17.046;2023-03-31T23:14:02;98381.22;;;10.28;84.14
31717;BME280;18301;51.076;17.046;2023-03-31T23:19:04;98364.16;;;10.19;84.50
31717;BME280;18301;51.076;17.046;2023-03-31T23:24:06;98353.81;;;10.32;84.99
31717;BME280;18301;51.076;17.046;2023-03-31T23:29:07;98358.91;;;10.44;85.12
31717;BME280;18301;51.076;17.046;2023-03-31T23:34:09;98354.38;;;10.44;85.32
31717;BME280;18301;51.076;17.046;2023-03-31T23:39:11;98350.13;;;10.42;85.90
31717;BME280;18301;51.076;17.046;2023-03-31T23:44:13;98337.81;;;10.39;86.29
31717;BME280;18301;51.076;17.046;2023-03-31T23:49:14;98345.91;;;10.39;86.68
31717;BME280;18301;51.076;17.046;2023-03-31T23:54:16;98340.84;;;10.36;87.54
31717;BME280;18301;51.076;17.046;2023-03-31T23:59:17;98339.69;;;10.39;87.11
